sensor_id;sensor_type;location;lat;lon;timestamp;temperature;humidity
52030;DHT22;38043;53.224;6.580;2022-09-27T00:00:14;10.30;99.90
52030;DHT22;38043;53.224;6.580;2022-09-27T00:02:40;10.40;99.90
52030;DHT22;38043;53.224;6.580;2022-09-27T00:05:06;10.40;99.90
52030;DHT22;38043;53.224;6.580;2022-09-27T00:07:31;10.40;99.90
52030;DHT22;38043;53.224;6.580;2022-09-27T00:09:58;10.40;99.90
52030;DHT22;38043;53.224;6.580;2022-09-27T00:12:23;10.40;99.90
52030;DHT22;38043;53.224;6.580;2022-09-27T00:14:49;10.30;99.90
52030;DHT22;38043;53.224;6.580;2022-09-27T00:17:15;10.30;99.90
52030;DHT22;38043;53.224;6.580;2022-09-27T00:19:40;10.20;99.90
52030;DHT22;38043;53.224;6.580;2022-09-27T00:22:06;10.30;99.90
52030;DHT22;38043;53.224;6.580;2022-09-27T00:24:32;10.20;99.90
52030;DHT22;38043;53.224;6.580;2022-09-27T00:26:58;10.20;99.90
52030;DHT22;38043;53.224;6.580;2022-09-27T00:29:23;10.20;99.90
52030;DHT22;38043;53.224;6.580;2022-09-27T00:31:49;10.20;99.90
52030;DHT22;38043;53.224;6.580;2022-09-27T00:34:23;10.20;99.90
52030;DHT22;38043;53.224;6.580;2022-09-27T00:36:49;10.20;99.90
52030;DHT22;38043;53.224;6.580;2022-09-27T00:39:15;10.10;99.90
52030;DHT22;38043;53.224;6.580;2022-09-27T00:41:41;10.20;99.90
52030;DHT22;38043;53.224;6.580;2022-09-27T00:52:03;10.20;99.90
52030;DHT22;38043;53.224;6.580;2022-09-27T00:54:31;10.10;99.90
52030;DHT22;38043;53.224;6.580;2022-09-27T00:56:57;10.20;99.90
52030;DHT22;38043;53.224;6.580;2022-09-27T00:59:35;10.10;99.90
52030;DHT22;38043;53.224;6.580;2022-09-27T01:02:04;10.10;99.90
52030;DHT22;38043;53.224;6.580;2022-09-27T01:04:30;10.00;99.90
52030;DHT22;38043;53.224;6.580;2022-09-27T01:06:56;10.20;99.90
52030;DHT22;38043;53.224;6.580;2022-09-27T01:09:22;10.10;99.90
52030;DHT22;38043;53.224;6.580;2022-09-27T01:31:06;10.10;99.90
52030;DHT22;38043;53.224;6.580;2022-09-27T01:33:49;10.20;99.90
52030;DHT22;38043;53.224;6.580;2022-09-27T03:06:38;9.50;99.90
52030;DHT22;38043;53.224;6.580;2022-09-27T03:09:57;9.50;99.90
52030;DHT22;38043;53.224;6.580;2022-09-27T03:11:58;9.50;99.90
52030;DHT22;38043;53.224;6.580;2022-09-27T03:14:23;9.40;99.90
52030;DHT22;38043;53.224;6.580;2022-09-27T03:16:49;9.50;99.90
52030;DHT22;38043;53.224;6.580;2022-09-27T03:19:15;9.40;99.90
52030;DHT22;38043;53.224;6.580;2022-09-27T03:21:40;9.60;99.90
52030;DHT22;38043;53.224;6.580;2022-09-27T03:24:06;9.50;99.90
52030;DHT22;38043;53.224;6.580;2022-09-27T03:26:31;9.50;99.90
52030;DHT22;38043;53.224;6.580;2022-09-27T03:28:57;9.40;99.90
52030;DHT22;38043;53.224;6.580;2022-09-27T03:31:23;9.40;99.90
52030;DHT22;38043;53.224;6.580;2022-09-27T03:33:48;9.40;99.90
52030;DHT22;38043;53.224;6.580;2022-09-27T03:36:14;9.40;99.90
52030;DHT22;38043;53.224;6.580;2022-09-27T03:38:39;9.40;99.90
52030;DHT22;38043;53.224;6.580;2022-09-27T03:41:05;9.40;99.90
52030;DHT22;38043;53.224;6.580;2022-09-27T03:43:31;9.40;99.90
52030;DHT22;38043;53.224;6.580;2022-09-27T03:45:56;9.40;99.90
52030;DHT22;38043;53.224;6.580;2022-09-27T03:48:22;9.40;99.90
52030;DHT22;38043;53.224;6.580;2022-09-27T03:50:50;9.30;99.90
52030;DHT22;38043;53.224;6.580;2022-09-27T03:53:15;9.30;99.90
52030;DHT22;38043;53.224;6.580;2022-09-27T03:55:44;9.30;99.90
52030;DHT22;38043;53.224;6.580;2022-09-27T03:58:10;9.30;99.90
52030;DHT22;38043;53.224;6.580;2022-09-27T04:00:35;9.30;99.90
52030;DHT22;38043;53.224;6.580;2022-09-27T04:03:01;9.30;99.90
52030;DHT22;38043;53.224;6.580;2022-09-27T04:05:28;9.30;99.90
52030;DHT22;38043;53.224;6.580;2022-09-27T04:07:53;9.30;99.90
52030;DHT22;38043;53.224;6.580;2022-09-27T04:10:19;9.30;99.90
52030;DHT22;38043;53.224;6.580;2022-09-27T04:12:46;9.30;99.90
52030;DHT22;38043;53.224;6.580;2022-09-27T04:15:12;9.30;99.90
52030;DHT22;38043;53.224;6.580;2022-09-27T04:17:40;9.40;99.90
52030;DHT22;38043;53.224;6.580;2022-09-27T04:20:07;9.30;99.90
52030;DHT22;38043;53.224;6.580;2022-09-27T04:22:33;9.30;99.90
52030;DHT22;38043;53.224;6.580;2022-09-27T04:24:59;9.30;99.90
52030;DHT22;38043;53.224;6.580;2022-09-27T04:27:25;9.30;99.90
52030;DHT22;38043;53.224;6.580;2022-09-27T04:29:50;9.30;99.90
52030;DHT22;38043;53.224;6.580;2022-09-27T04:32:16;9.30;99.90
52030;DHT22;38043;53.224;6.580;2022-09-27T04:34:42;9.40;99.90
52030;DHT22;38043;53.224;6.580;2022-09-27T04:37:26;9.40;99.90
52030;DHT22;38043;53.224;6.580;2022-09-27T04:39:52;9.40;99.90
52030;DHT22;38043;53.224;6.580;2022-09-27T04:42:17;9.30;99.90
52030;DHT22;38043;53.224;6.580;2022-09-27T04:44:43;9.40;99.90
52030;DHT22;38043;53.224;6.580;2022-09-27T04:47:09;9.40;99.90
52030;DHT22;38043;53.224;6.580;2022-09-27T04:49:35;9.30;99.90
52030;DHT22;38043;53.224;6.580;2022-09-27T04:52:03;9.30;99.90
52030;DHT22;38043;53.224;6.580;2022-09-27T04:54:30;9.30;99.90
52030;DHT22;38043;53.224;6.580;2022-09-27T04:56:56;9.30;99.90
52030;DHT22;38043;53.224;6.580;2022-09-27T04:59:22;9.30;99.90
52030;DHT22;38043;53.224;6.580;2022-09-27T05:01:47;9.30;99.90
52030;DHT22;38043;53.224;6.580;2022-09-27T05:04:14;9.30;99.90
52030;DHT22;38043;53.224;6.580;2022-09-27T05:06:40;9.30;99.90
52030;DHT22;38043;53.224;6.580;2022-09-27T05:09:06;9.30;99.90
52030;DHT22;38043;53.224;6.580;2022-09-27T05:11:31;9.30;99.90
52030;DHT22;38043;53.224;6.580;2022-09-27T05:13:57;9.30;99.90
52030;DHT22;38043;53.224;6.580;2022-09-27T05:16:23;9.40;99.90
52030;DHT22;38043;53.224;6.580;2022-09-27T05:18:49;9.30;99.90
52030;DHT22;38043;53.224;6.580;2022-09-27T05:21:15;9.30;99.90
52030;DHT22;38043;53.224;6.580;2022-09-27T05:23:40;9.30;99.90
52030;DHT22;38043;53.224;6.580;2022-09-27T05:26:06;9.30;99.90
52030;DHT22;38043;53.224;6.580;2022-09-27T05:28:32;9.30;99.90
52030;DHT22;38043;53.224;6.580;2022-09-27T05:31:02;9.30;99.90
52030;DHT22;38043;53.224;6.580;2022-09-27T05:33:28;9.30;99.90
52030;DHT22;38043;53.224;6.580;2022-09-27T05:35:55;9.30;99.90
52030;DHT22;38043;53.224;6.580;2022-09-27T05:38:22;9.20;99.90
52030;DHT22;38043;53.224;6.580;2022-09-27T05:40:48;9.30;99.90
52030;DHT22;38043;53.224;6.580;2022-09-27T05:43:18;9.30;99.90
52030;DHT22;38043;53.224;6.580;2022-09-27T05:45:46;9.20;99.90
52030;DHT22;38043;53.224;6.580;2022-09-27T05:48:12;9.20;99.90
52030;DHT22;38043;53.224;6.580;2022-09-27T05:50:39;9.20;99.90
52030;DHT22;38043;53.224;6.580;2022-09-27T05:53:05;9.20;99.90
52030;DHT22;38043;53.224;6.580;2022-09-27T05:55:31;9.20;99.90
52030;DHT22;38043;53.224;6.580;2022-09-27T05:58:03;9.20;99.90
52030;DHT22;38043;53.224;6.580;2022-09-27T06:00:29;9.30;99.90
52030;DHT22;38043;53.224;6.580;2022-09-27T06:02:57;9.20;99.90
52030;DHT22;38043;53.224;6.580;2022-09-27T06:05:24;9.30;99.90
52030;DHT22;38043;53.224;6.580;2022-09-27T06:07:51;9.20;99.90
52030;DHT22;38043;53.224;6.580;2022-09-27T06:10:18;9.30;99.90
52030;DHT22;38043;53.224;6.580;2022-09-27T06:12:44;9.30;99.90
52030;DHT22;38043;53.224;6.580;2022-09-27T06:15:10;9.30;99.90
52030;DHT22;38043;53.224;6.580;2022-09-27T06:17:36;9.30;99.90
52030;DHT22;38043;53.224;6.580;2022-09-27T06:20:02;9.30;99.90
52030;DHT22;38043;53.224;6.580;2022-09-27T06:22:29;9.30;99.90
52030;DHT22;38043;53.224;6.580;2022-09-27T06:24:54;9.40;99.90
52030;DHT22;38043;53.224;6.580;2022-09-27T06:27:28;9.30;99.90
52030;DHT22;38043;53.224;6.580;2022-09-27T06:29:53;9.30;99.90
52030;DHT22;38043;53.224;6.580;2022-09-27T06:32:20;9.40;99.90
52030;DHT22;38043;53.224;6.580;2022-09-27T06:34:46;9.50;99.90
52030;DHT22;38043;53.224;6.580;2022-09-27T06:37:11;9.40;99.90
52030;DHT22;38043;53.224;6.580;2022-09-27T06:39:37;9.50;99.90
52030;DHT22;38043;53.224;6.580;2022-09-27T06:42:03;9.50;99.90
52030;DHT22;38043;53.224;6.580;2022-09-27T06:44:28;9.50;99.90
52030;DHT22;38043;53.224;6.580;2022-09-27T06:46:54;9.60;99.90
52030;DHT22;38043;53.224;6.580;2022-09-27T06:49:21;9.60;99.90
52030;DHT22;38043;53.224;6.580;2022-09-27T06:51:47;9.50;99.90
52030;DHT22;38043;53.224;6.580;2022-09-27T06:54:13;9.50;99.90
52030;DHT22;38043;53.224;6.580;2022-09-27T06:56:39;9.50;99.90
52030;DHT22;38043;53.224;6.580;2022-09-27T06:59:05;9.60;99.90
52030;DHT22;38043;53.224;6.580;2022-09-27T07:01:49;9.50;99.90
52030;DHT22;38043;53.224;6.580;2022-09-27T07:04:17;9.50;99.90
52030;DHT22;38043;53.224;6.580;2022-09-27T07:06:43;9.50;99.90
52030;DHT22;38043;53.224;6.580;2022-09-27T07:09:09;9.60;99.90
52030;DHT22;38043;53.224;6.580;2022-09-27T07:11:35;9.60;99.90
52030;DHT22;38043;53.224;6.580;2022-09-27T07:14:04;9.60;99.90
52030;DHT22;38043;53.224;6.580;2022-09-27T07:16:31;9.60;99.90
52030;DHT22;38043;53.224;6.580;2022-09-27T07:18:59;9.60;99.90
52030;DHT22;38043;53.224;6.580;2022-09-27T07:21:25;9.60;99.90
52030;DHT22;38043;53.224;6.580;2022-09-27T07:23:51;9.60;99.90
52030;DHT22;38043;53.224;6.580;2022-09-27T07:26:18;9.70;99.90
52030;DHT22;38043;53.224;6.580;2022-09-27T07:28:43;9.70;99.90
52030;DHT22;38043;53.224;6.580;2022-09-27T07:31:11;9.90;99.90
52030;DHT22;38043;53.224;6.580;2022-09-27T07:33:43;9.80;99.90
52030;DHT22;38043;53.224;6.580;2022-09-27T07:36:09;9.80;99.90
52030;DHT22;38043;53.224;6.580;2022-09-27T07:38:36;9.90;99.90
52030;DHT22;38043;53.224;6.580;2022-09-27T07:41:09;10.00;99.90
52030;DHT22;38043;53.224;6.580;2022-09-27T07:43:35;10.10;99.90
52030;DHT22;38043;53.224;6.580;2022-09-27T07:46:01;10.20;99.90
52030;DHT22;38043;53.224;6.580;2022-09-27T07:48:26;10.30;99.90
52030;DHT22;38043;53.224;6.580;2022-09-27T07:50:52;10.40;99.90
52030;DHT22;38043;53.224;6.580;2022-09-27T07:53:18;10.60;99.90
52030;DHT22;38043;53.224;6.580;2022-09-27T07:55:49;10.60;99.90
52030;DHT22;38043;53.224;6.580;2022-09-27T07:58:15;10.60;99.90
52030;DHT22;38043;53.224;6.580;2022-09-27T08:00:41;10.60;99.90
52030;DHT22;38043;53.224;6.580;2022-09-27T08:03:14;10.50;99.90
52030;DHT22;38043;53.224;6.580;2022-09-27T08:05:41;10.50;99.90
52030;DHT22;38043;53.224;6.580;2022-09-27T08:08:07;10.40;99.90
52030;DHT22;38043;53.224;6.580;2022-09-27T08:10:33;10.30;99.90
52030;DHT22;38043;53.224;6.580;2022-09-27T08:13:03;10.30;99.90
52030;DHT22;38043;53.224;6.580;2022-09-27T08:15:33;10.20;99.90
52030;DHT22;38043;53.224;6.580;2022-09-27T08:18:06;10.20;99.90
52030;DHT22;38043;53.224;6.580;2022-09-27T08:20:34;10.20;99.90
52030;DHT22;38043;53.224;6.580;2022-09-27T08:22:59;10.20;99.90
52030;DHT22;38043;53.224;6.580;2022-09-27T08:25:29;10.20;99.90
52030;DHT22;38043;53.224;6.580;2022-09-27T08:27:55;10.30;99.90
52030;DHT22;38043;53.224;6.580;2022-09-27T08:30:22;10.30;99.90
52030;DHT22;38043;53.224;6.580;2022-09-27T08:32:48;10.40;99.90
52030;DHT22;38043;53.224;6.580;2022-09-27T08:35:13;10.50;99.90
52030;DHT22;38043;53.224;6.580;2022-09-27T08:37:40;10.60;99.90
52030;DHT22;38043;53.224;6.580;2022-09-27T08:40:06;10.70;99.90
52030;DHT22;38043;53.224;6.580;2022-09-27T08:42:44;10.80;99.90
52030;DHT22;38043;53.224;6.580;2022-09-27T08:45:15;10.90;99.90
52030;DHT22;38043;53.224;6.580;2022-09-27T08:47:46;11.00;99.90
52030;DHT22;38043;53.224;6.580;2022-09-27T08:52:59;11.10;99.90
52030;DHT22;38043;53.224;6.580;2022-09-27T08:55:32;11.10;99.90
52030;DHT22;38043;53.224;6.580;2022-09-27T08:58:12;11.20;99.90
52030;DHT22;38043;53.224;6.580;2022-09-27T09:00:39;11.20;99.90
52030;DHT22;38043;53.224;6.580;2022-09-27T09:03:15;11.10;99.90
52030;DHT22;38043;53.224;6.580;2022-09-27T09:05:58;11.10;99.90
52030;DHT22;38043;53.224;6.580;2022-09-27T09:08:34;11.10;99.90
52030;DHT22;38043;53.224;6.580;2022-09-27T09:11:08;11.10;99.90
52030;DHT22;38043;53.224;6.580;2022-09-27T09:19:53;11.20;99.90
52030;DHT22;38043;53.224;6.580;2022-09-27T09:30:23;11.00;99.90
52030;DHT22;38043;53.224;6.580;2022-09-27T09:35:27;10.90;99.90
52030;DHT22;38043;53.224;6.580;2022-09-27T09:37:59;10.80;99.90
52030;DHT22;38043;53.224;6.580;2022-09-27T09:40:45;10.80;99.90
52030;DHT22;38043;53.224;6.580;2022-09-27T09:43:28;10.70;99.90
52030;DHT22;38043;53.224;6.580;2022-09-27T09:46:01;10.60;99.90
52030;DHT22;38043;53.224;6.580;2022-09-27T09:48:56;10.60;99.90
52030;DHT22;38043;53.224;6.580;2022-09-27T09:51:31;10.60;99.90
52030;DHT22;38043;53.224;6.580;2022-09-27T09:54:09;10.60;99.90
52030;DHT22;38043;53.224;6.580;2022-09-27T09:57:00;10.70;99.90
52030;DHT22;38043;53.224;6.580;2022-09-27T09:59:37;10.70;99.90
52030;DHT22;38043;53.224;6.580;2022-09-27T10:02:22;10.60;99.90
52030;DHT22;38043;53.224;6.580;2022-09-27T10:04:51;10.70;99.90
52030;DHT22;38043;53.224;6.580;2022-09-27T10:07:20;10.60;99.90
52030;DHT22;38043;53.224;6.580;2022-09-27T10:09:48;10.70;99.90
52030;DHT22;38043;53.224;6.580;2022-09-27T10:12:14;10.60;99.90
52030;DHT22;38043;53.224;6.580;2022-09-27T10:14:41;10.70;99.90
52030;DHT22;38043;53.224;6.580;2022-09-27T10:17:15;10.70;99.90
52030;DHT22;38043;53.224;6.580;2022-09-27T10:19:43;10.70;99.90
52030;DHT22;38043;53.224;6.580;2022-09-27T10:22:21;10.80;99.90
52030;DHT22;38043;53.224;6.580;2022-09-27T10:24:58;10.70;99.90
52030;DHT22;38043;53.224;6.580;2022-09-27T10:27:36;10.80;99.90
52030;DHT22;38043;53.224;6.580;2022-09-27T10:30:03;10.80;99.90
52030;DHT22;38043;53.224;6.580;2022-09-27T10:32:32;10.80;99.90
52030;DHT22;38043;53.224;6.580;2022-09-27T10:40:43;10.90;99.90
52030;DHT22;38043;53.224;6.580;2022-09-27T10:43:30;11.00;99.90
52030;DHT22;38043;53.224;6.580;2022-09-27T10:48:35;11.30;99.90
52030;DHT22;38043;53.224;6.580;2022-09-27T10:51:05;11.50;99.90
52030;DHT22;38043;53.224;6.580;2022-09-27T10:53:33;11.70;99.90
52030;DHT22;38043;53.224;6.580;2022-09-27T10:56:00;11.70;99.90
52030;DHT22;38043;53.224;6.580;2022-09-27T10:58:30;11.80;99.90
52030;DHT22;38043;53.224;6.580;2022-09-27T11:00:59;11.70;99.90
52030;DHT22;38043;53.224;6.580;2022-09-27T11:03:28;11.60;99.90
52030;DHT22;38043;53.224;6.580;2022-09-27T11:05:54;11.40;99.90
52030;DHT22;38043;53.224;6.580;2022-09-27T11:08:33;11.40;99.90
52030;DHT22;38043;53.224;6.580;2022-09-27T11:11:17;11.30;99.90
52030;DHT22;38043;53.224;6.580;2022-09-27T11:14:04;11.20;99.90
52030;DHT22;38043;53.224;6.580;2022-09-27T11:31:22;10.90;99.90
52030;DHT22;38043;53.224;6.580;2022-09-27T11:39:27;10.90;99.90
52030;DHT22;38043;53.224;6.580;2022-09-27T11:45:01;11.00;99.90
52030;DHT22;38043;53.224;6.580;2022-09-27T11:47:39;11.20;99.90
52030;DHT22;38043;53.224;6.580;2022-09-27T11:50:25;11.60;99.90
52030;DHT22;38043;53.224;6.580;2022-09-27T11:55:42;12.80;99.90
52030;DHT22;38043;53.224;6.580;2022-09-27T11:58:17;13.10;99.90
52030;DHT22;38043;53.224;6.580;2022-09-27T12:01:16;13.00;99.90
52030;DHT22;38043;53.224;6.580;2022-09-27T12:09:15;11.40;99.90
52030;DHT22;38043;53.224;6.580;2022-09-27T12:11:48;11.20;99.90
52030;DHT22;38043;53.224;6.580;2022-09-27T12:14:28;11.10;99.90
52030;DHT22;38043;53.224;6.580;2022-09-27T12:16:58;11.10;99.90
52030;DHT22;38043;53.224;6.580;2022-09-27T12:19:29;11.30;99.90
52030;DHT22;38043;53.224;6.580;2022-09-27T12:22:01;11.40;99.90
52030;DHT22;38043;53.224;6.580;2022-09-27T12:24:27;11.40;99.90
52030;DHT22;38043;53.224;6.580;2022-09-27T12:26:58;11.30;99.90
52030;DHT22;38043;53.224;6.580;2022-09-27T12:29:31;11.40;99.90
52030;DHT22;38043;53.224;6.580;2022-09-27T12:32:15;11.40;99.90
52030;DHT22;38043;53.224;6.580;2022-09-27T12:37:45;11.40;99.90
52030;DHT22;38043;53.224;6.580;2022-09-27T12:43:16;11.50;99.90
52030;DHT22;38043;53.224;6.580;2022-09-27T12:51:09;11.60;99.90
52030;DHT22;38043;53.224;6.580;2022-09-27T13:02:29;11.80;99.90
52030;DHT22;38043;53.224;6.580;2022-09-27T13:08:04;11.80;99.90
52030;DHT22;38043;53.224;6.580;2022-09-27T13:13:14;11.90;99.90
52030;DHT22;38043;53.224;6.580;2022-09-27T13:15:43;12.00;99.90
52030;DHT22;38043;53.224;6.580;2022-09-27T13:20:57;12.00;99.90
52030;DHT22;38043;53.224;6.580;2022-09-27T13:25:55;11.90;99.90
52030;DHT22;38043;53.224;6.580;2022-09-27T13:31:10;11.80;99.90
52030;DHT22;38043;53.224;6.580;2022-09-27T13:33:49;11.90;99.90
52030;DHT22;38043;53.224;6.580;2022-09-27T13:46:33;11.20;99.90
52030;DHT22;38043;53.224;6.580;2022-09-27T13:49:14;11.30;99.90
52030;DHT22;38043;53.224;6.580;2022-09-27T13:51:53;11.10;99.90
52030;DHT22;38043;53.224;6.580;2022-09-27T13:56:59;10.80;99.90
52030;DHT22;38043;53.224;6.580;2022-09-27T13:59:46;10.70;99.90
52030;DHT22;38043;53.224;6.580;2022-09-27T14:02:26;10.70;99.90
52030;DHT22;38043;53.224;6.580;2022-09-27T14:04:55;10.60;99.90
52030;DHT22;38043;53.224;6.580;2022-09-27T14:07:24;10.60;99.90
52030;DHT22;38043;53.224;6.580;2022-09-27T14:09:55;10.60;99.90
52030;DHT22;38043;53.224;6.580;2022-09-27T14:12:38;10.60;99.90
52030;DHT22;38043;53.224;6.580;2022-09-27T14:15:06;10.70;99.90
52030;DHT22;38043;53.224;6.580;2022-09-27T14:17:33;10.70;99.90
52030;DHT22;38043;53.224;6.580;2022-09-27T14:20:00;10.80;99.90
52030;DHT22;38043;53.224;6.580;2022-09-27T14:22:27;10.80;99.90
52030;DHT22;38043;53.224;6.580;2022-09-27T14:24:55;10.80;99.90
52030;DHT22;38043;53.224;6.580;2022-09-27T14:27:28;10.80;99.90
52030;DHT22;38043;53.224;6.580;2022-09-27T14:29:59;10.70;99.90
52030;DHT22;38043;53.224;6.580;2022-09-27T14:32:28;10.70;99.90
52030;DHT22;38043;53.224;6.580;2022-09-27T14:37:27;10.60;99.90
52030;DHT22;38043;53.224;6.580;2022-09-27T14:40:00;10.50;99.90
52030;DHT22;38043;53.224;6.580;2022-09-27T14:42:28;10.60;99.90
52030;DHT22;38043;53.224;6.580;2022-09-27T14:45:00;10.40;99.90
52030;DHT22;38043;53.224;6.580;2022-09-27T14:47:27;10.40;99.90
52030;DHT22;38043;53.224;6.580;2022-09-27T14:49:59;10.40;99.90
52030;DHT22;38043;53.224;6.580;2022-09-27T14:52:27;10.50;99.90
52030;DHT22;38043;53.224;6.580;2022-09-27T14:54:57;10.50;99.90
52030;DHT22;38043;53.224;6.580;2022-09-27T14:57:24;10.60;99.90
52030;DHT22;38043;53.224;6.580;2022-09-27T14:59:50;10.60;99.90
52030;DHT22;38043;53.224;6.580;2022-09-27T15:02:20;11.40;99.90
52030;DHT22;38043;53.224;6.580;2022-09-27T15:04:49;10.70;99.90
52030;DHT22;38043;53.224;6.580;2022-09-27T15:07:16;10.80;99.90
52030;DHT22;38043;53.224;6.580;2022-09-27T15:09:43;10.80;99.90
52030;DHT22;38043;53.224;6.580;2022-09-27T15:12:12;10.80;99.90
52030;DHT22;38043;53.224;6.580;2022-09-27T15:14:39;10.80;99.90
52030;DHT22;38043;53.224;6.580;2022-09-27T15:17:15;10.90;99.90
52030;DHT22;38043;53.224;6.580;2022-09-27T15:19:59;10.90;99.90
52030;DHT22;38043;53.224;6.580;2022-09-27T15:22:35;10.90;99.90
52030;DHT22;38043;53.224;6.580;2022-09-27T15:25:19;10.90;99.90
52030;DHT22;38043;53.224;6.580;2022-09-27T15:27:51;10.70;99.90
52030;DHT22;38043;53.224;6.580;2022-09-27T15:30:20;10.90;99.90
52030;DHT22;38043;53.224;6.580;2022-09-27T15:32:50;10.80;99.90
52030;DHT22;38043;53.224;6.580;2022-09-27T15:35:19;10.80;99.90
52030;DHT22;38043;53.224;6.580;2022-09-27T15:37:46;10.80;99.90
52030;DHT22;38043;53.224;6.580;2022-09-27T15:42:56;10.70;99.90
52030;DHT22;38043;53.224;6.580;2022-09-27T15:45:27;10.70;99.90
52030;DHT22;38043;53.224;6.580;2022-09-27T15:47:53;10.70;99.90
52030;DHT22;38043;53.224;6.580;2022-09-27T15:52:52;10.70;99.90
52030;DHT22;38043;53.224;6.580;2022-09-27T15:55:24;10.60;99.90
52030;DHT22;38043;53.224;6.580;2022-09-27T15:58:20;10.70;99.90
52030;DHT22;38043;53.224;6.580;2022-09-27T16:01:00;10.70;99.90
52030;DHT22;38043;53.224;6.580;2022-09-27T16:03:30;10.60;99.90
52030;DHT22;38043;53.224;6.580;2022-09-27T16:05:58;10.70;99.90
52030;DHT22;38043;53.224;6.580;2022-09-27T16:08:24;10.70;99.90
52030;DHT22;38043;53.224;6.580;2022-09-27T16:10:55;10.60;99.90
52030;DHT22;38043;53.224;6.580;2022-09-27T16:13:25;10.70;99.90
52030;DHT22;38043;53.224;6.580;2022-09-27T16:15:51;10.70;99.90
52030;DHT22;38043;53.224;6.580;2022-09-27T16:18:17;10.70;99.90
52030;DHT22;38043;53.224;6.580;2022-09-27T16:20:43;10.60;99.90
52030;DHT22;38043;53.224;6.580;2022-09-27T16:23:09;10.60;99.90
52030;DHT22;38043;53.224;6.580;2022-09-27T16:25:35;10.60;99.90
52030;DHT22;38043;53.224;6.580;2022-09-27T16:28:02;10.60;99.90
52030;DHT22;38043;53.224;6.580;2022-09-27T16:30:28;10.60;99.90
52030;DHT22;38043;53.224;6.580;2022-09-27T16:32:57;10.60;99.90
52030;DHT22;38043;53.224;6.580;2022-09-27T16:35:24;10.50;99.90
52030;DHT22;38043;53.224;6.580;2022-09-27T16:37:50;10.50;99.90
52030;DHT22;38043;53.224;6.580;2022-09-27T16:40:17;10.80;99.90
52030;DHT22;38043;53.224;6.580;2022-09-27T16:42:45;10.50;99.90
52030;DHT22;38043;53.224;6.580;2022-09-27T16:45:12;10.50;99.90
52030;DHT22;38043;53.224;6.580;2022-09-27T16:47:41;10.40;99.90
52030;DHT22;38043;53.224;6.580;2022-09-27T16:50:08;10.40;99.90
52030;DHT22;38043;53.224;6.580;2022-09-27T16:52:53;10.40;99.90
52030;DHT22;38043;53.224;6.580;2022-09-27T16:55:19;10.30;99.90
52030;DHT22;38043;53.224;6.580;2022-09-27T16:57:49;10.30;99.90
52030;DHT22;38043;53.224;6.580;2022-09-27T17:00:16;10.30;99.90
52030;DHT22;38043;53.224;6.580;2022-09-27T17:02:42;10.30;99.90
52030;DHT22;38043;53.224;6.580;2022-09-27T17:05:11;10.30;99.90
52030;DHT22;38043;53.224;6.580;2022-09-27T17:07:37;10.20;99.90
52030;DHT22;38043;53.224;6.580;2022-09-27T17:10:04;10.10;99.90
52030;DHT22;38043;53.224;6.580;2022-09-27T17:12:31;10.00;99.90
52030;DHT22;38043;53.224;6.580;2022-09-27T17:14:57;9.90;99.90
52030;DHT22;38043;53.224;6.580;2022-09-27T17:17:22;9.80;99.90
52030;DHT22;38043;53.224;6.580;2022-09-27T17:19:48;9.70;99.90
52030;DHT22;38043;53.224;6.580;2022-09-27T17:22:13;9.70;99.90
52030;DHT22;38043;53.224;6.580;2022-09-27T17:24:39;9.60;99.90
52030;DHT22;38043;53.224;6.580;2022-09-27T17:27:05;9.50;99.90
52030;DHT22;38043;53.224;6.580;2022-09-27T17:29:30;9.50;99.90
52030;DHT22;38043;53.224;6.580;2022-09-27T17:31:56;9.40;99.90
52030;DHT22;38043;53.224;6.580;2022-09-27T17:34:21;9.40;99.90
52030;DHT22;38043;53.224;6.580;2022-09-27T17:36:47;9.30;99.90
52030;DHT22;38043;53.224;6.580;2022-09-27T17:39:17;9.30;99.90
52030;DHT22;38043;53.224;6.580;2022-09-27T17:41:46;9.20;99.90
52030;DHT22;38043;53.224;6.580;2022-09-27T17:44:14;9.20;99.90
52030;DHT22;38043;53.224;6.580;2022-09-27T17:46:41;9.10;99.90
52030;DHT22;38043;53.224;6.580;2022-09-27T17:49:08;9.20;99.90
52030;DHT22;38043;53.224;6.580;2022-09-27T17:51:53;9.10;99.90
52030;DHT22;38043;53.224;6.580;2022-09-27T17:54:23;9.10;99.90
52030;DHT22;38043;53.224;6.580;2022-09-27T17:56:50;9.10;99.90
52030;DHT22;38043;53.224;6.580;2022-09-27T17:59:16;9.00;99.90
52030;DHT22;38043;53.224;6.580;2022-09-27T18:01:44;9.00;99.90
52030;DHT22;38043;53.224;6.580;2022-09-27T18:04:12;8.90;99.90
52030;DHT22;38043;53.224;6.580;2022-09-27T18:06:40;8.80;99.90
52030;DHT22;38043;53.224;6.580;2022-09-27T18:09:08;8.90;99.90
52030;DHT22;38043;53.224;6.580;2022-09-27T18:11:35;8.80;99.90
52030;DHT22;38043;53.224;6.580;2022-09-27T18:14:01;8.80;99.90
52030;DHT22;38043;53.224;6.580;2022-09-27T18:16:30;8.90;99.90
52030;DHT22;38043;53.224;6.580;2022-09-27T18:19:00;8.80;99.90
52030;DHT22;38043;53.224;6.580;2022-09-27T18:21:28;8.70;99.90
52030;DHT22;38043;53.224;6.580;2022-09-27T18:23:58;8.80;99.90
52030;DHT22;38043;53.224;6.580;2022-09-27T18:26:26;8.70;99.90
52030;DHT22;38043;53.224;6.580;2022-09-27T18:28:58;8.70;99.90
52030;DHT22;38043;53.224;6.580;2022-09-27T18:31:24;8.70;99.90
52030;DHT22;38043;53.224;6.580;2022-09-27T18:33:49;8.70;99.90
52030;DHT22;38043;53.224;6.580;2022-09-27T18:36:20;8.70;99.90
52030;DHT22;38043;53.224;6.580;2022-09-27T18:38:51;8.70;99.90
52030;DHT22;38043;53.224;6.580;2022-09-27T18:41:18;8.70;99.90
52030;DHT22;38043;53.224;6.580;2022-09-27T18:43:45;8.70;99.90
52030;DHT22;38043;53.224;6.580;2022-09-27T18:46:16;8.70;99.90
52030;DHT22;38043;53.224;6.580;2022-09-27T18:48:45;8.70;99.90
52030;DHT22;38043;53.224;6.580;2022-09-27T18:51:19;8.70;99.90
52030;DHT22;38043;53.224;6.580;2022-09-27T18:53:46;8.70;99.90
52030;DHT22;38043;53.224;6.580;2022-09-27T18:56:16;8.70;99.90
52030;DHT22;38043;53.224;6.580;2022-09-27T18:58:43;8.70;99.90
52030;DHT22;38043;53.224;6.580;2022-09-27T19:01:11;8.70;99.90
52030;DHT22;38043;53.224;6.580;2022-09-27T19:03:38;8.70;99.90
52030;DHT22;38043;53.224;6.580;2022-09-27T19:06:06;8.70;99.90
52030;DHT22;38043;53.224;6.580;2022-09-27T19:08:32;8.70;99.90
52030;DHT22;38043;53.224;6.580;2022-09-27T19:11:05;8.70;99.90
52030;DHT22;38043;53.224;6.580;2022-09-27T19:13:32;8.70;99.90
52030;DHT22;38043;53.224;6.580;2022-09-27T19:15:58;8.70;99.90
52030;DHT22;38043;53.224;6.580;2022-09-27T19:18:25;8.60;99.90
52030;DHT22;38043;53.224;6.580;2022-09-27T19:20:52;8.70;99.90
52030;DHT22;38043;53.224;6.580;2022-09-27T19:23:18;8.70;99.90
52030;DHT22;38043;53.224;6.580;2022-09-27T19:25:48;8.60;99.90
52030;DHT22;38043;53.224;6.580;2022-09-27T19:28:14;8.60;99.90
52030;DHT22;38043;53.224;6.580;2022-09-27T19:30:44;8.60;99.90
52030;DHT22;38043;53.224;6.580;2022-09-27T19:33:09;9.10;99.90
52030;DHT22;38043;53.224;6.580;2022-09-27T19:35:35;8.60;99.90
52030;DHT22;38043;53.224;6.580;2022-09-27T19:38:01;8.70;99.90
52030;DHT22;38043;53.224;6.580;2022-09-27T19:40:27;8.60;99.90